Chambers, AZ

1:30 PM MST on March 04, 2015 (GMT -0700)
Saint Johns Industrial | Change Station
CLOSE
Current Station
Airport
Location: St. Johns,
Elevation: 5725 ft
Nearby Weather Stations

Elev 5725 ft 34.52 °N, 109.38 °W | Updated 36 minutes ago

Partly Cloudy
Partly Cloudy
43 °F
Feels Like 36 °F
N
15
Wind Variable Wind from WNW
Gusts 18 mph

Today
High -- | Low -- °F
--% Chance of Precip.
Yesterday
High -- | Low -- °F
Precip. -- in
6:43 AM 6:15 PM
Waxing Gibbous, 99% visible
Pressure 29.98 in
Visibility 10.0 miles
Clouds Few 4200 ft
Mostly Cloudy 6000 ft
Windchill 36 °F
Dew Point 25 °F
Humidity 49%
Rainfall 0.00 in
Snow Depth Not available.
UV 4 out of 12
Pollen 2.90 out of 12
Air Quality Not available.
Flu Activity Not available.
METAR KSJN 041954Z AUTO 30013G16KT 10SM FEW042 BKN060 06/M04 A3002 RMK AO2 SLP151 T00611039

More Conditions Fewer Conditions

Pressure 29.98 in
Visibility 10.0 miles
Clouds Few 4200 ft
Mostly Cloudy 6000 ft
Windchill 36 °F
Dew Point 25 °F
Humidity 49%
Rainfall 0.00 in
Snow Depth Not available.
UV 4 out of 12
Pollen 2.90 out of 12
Air Quality Not available.
Flu Activity Not available.
METAR KSJN 041954Z AUTO 30013G16KT 10SM FEW042 BKN060 06/M04 A3002 RMK AO2 SLP151 T00611039

More Conditions Fewer Conditions

10-Day Weather Forecast

Almanac

Astronomy

Mar. 04, 2015 Rise Set
Actual Time
Civil Twilight
Nautical Twilight
Astronomical Twilight
Moon
Length of Visible Light
Length of Day
Tomorrow will be .
, % of the Moon is Illuminated

Today's Extremes

State Highs State Lows

Community

WunderPhotos

Upload Photos

1,802,575 photos uploaded!

WunderBlogs® & News

Nearby

Air Quality

  Air Quality AQ Index Pollutant
Not available.

Snow Depth

Station Depth Elevation

Earthquake Activity

City Distance Mag. Time & Date
Minimum magnitude displayed is 2.5.

Coastal Water Temperatures

Place Temperature

Nearby Weather Stations